sensor_id;sensor_type;location;lat;lon;timestamp;P1;durP1;ratioP1;P2;durP2;ratioP2
60973;SDS011;46846;51.528;5.076;2023-08-06T00:01:26;458.42;;;436.23;;
60973;SDS011;46846;51.528;5.076;2023-08-06T00:03:51;455.58;;;433.60;;
60973;SDS011;46846;51.528;5.076;2023-08-06T00:06:16;464.30;;;441.90;;
60973;SDS011;46846;51.528;5.076;2023-08-06T00:08:42;467.65;;;444.95;;
60973;SDS011;46846;51.528;5.076;2023-08-06T00:11:07;459.10;;;436.92;;
60973;SDS011;46846;51.528;5.076;2023-08-06T00:13:33;442.85;;;421.38;;
60973;SDS011;46846;51.528;5.076;2023-08-06T00:16:11;449.38;;;427.58;;
60973;SDS011;46846;51.528;5.076;2023-08-06T00:18:38;456.83;;;434.83;;
60973;SDS011;46846;51.528;5.076;2023-08-06T00:21:04;452.63;;;430.67;;
60973;SDS011;46846;51.528;5.076;2023-08-06T00:23:29;450.33;;;428.58;;
60973;SDS011;46846;51.528;5.076;2023-08-06T00:25:54;470.48;;;447.88;;
60973;SDS011;46846;51.528;5.076;2023-08-06T00:28:20;453.05;;;431.13;;
60973;SDS011;46846;51.528;5.076;2023-08-06T00:30:45;479.67;;;456.60;;
60973;SDS011;46846;51.528;5.076;2023-08-06T00:33:11;452.95;;;431.05;;
60973;SDS011;46846;51.528;5.076;2023-08-06T00:35:36;456.80;;;434.65;;
60973;SDS011;46846;51.528;5.076;2023-08-06T00:38:01;440.20;;;418.77;;
60973;SDS011;46846;51.528;5.076;2023-08-06T00:40:27;447.73;;;426.08;;
60973;SDS011;46846;51.528;5.076;2023-08-06T00:42:55;462.08;;;439.77;;
60973;SDS011;46846;51.528;5.076;2023-08-06T00:45:20;453.13;;;430.92;;
60973;SDS011;46846;51.528;5.076;2023-08-06T00:47:47;464.30;;;441.92;;
60973;SDS011;46846;51.528;5.076;2023-08-06T00:50:12;449.23;;;427.48;;
60973;SDS011;46846;51.528;5.076;2023-08-06T00:52:38;455.25;;;432.65;;
60973;SDS011;46846;51.528;5.076;2023-08-06T00:55:04;479.52;;;456.58;;
60973;SDS011;46846;51.528;5.076;2023-08-06T00:57:31;447.73;;;426.00;;
60973;SDS011;46846;51.528;5.076;2023-08-06T00:59:56;462.45;;;440.23;;
60973;SDS011;46846;51.528;5.076;2023-08-06T01:02:22;451.70;;;429.52;;
60973;SDS011;46846;51.528;5.076;2023-08-06T01:04:47;471.02;;;448.35;;
60973;SDS011;46846;51.528;5.076;2023-08-06T01:10:14;463.10;;;440.73;;
60973;SDS011;46846;51.528;5.076;2023-08-06T01:15:41;442.98;;;421.30;;
60973;SDS011;46846;51.528;5.076;2023-08-06T01:18:11;462.23;;;439.75;;
60973;SDS011;46846;51.528;5.076;2023-08-06T01:20:37;456.52;;;434.10;;
60973;SDS011;46846;51.528;5.076;2023-08-06T01:23:02;456.80;;;434.02;;
60973;SDS011;46846;51.528;5.076;2023-08-06T01:25:35;445.40;;;423.80;;
60973;SDS011;46846;51.528;5.076;2023-08-06T01:28:15;452.67;;;430.52;;
60973;SDS011;46846;51.528;5.076;2023-08-06T01:30:48;468.50;;;445.80;;
60973;SDS011;46846;51.528;5.076;2023-08-06T01:33:16;454.88;;;432.88;;
60973;SDS011;46846;51.528;5.076;2023-08-06T01:35:46;460.70;;;438.35;;
60973;SDS011;46846;51.528;5.076;2023-08-06T01:38:14;457.65;;;435.50;;
60973;SDS011;46846;51.528;5.076;2023-08-06T01:40:40;446.10;;;424.40;;
60973;SDS011;46846;51.528;5.076;2023-08-06T01:43:05;436.23;;;414.90;;
60973;SDS011;46846;51.528;5.076;2023-08-06T01:45:31;443.33;;;421.92;;
60973;SDS011;46846;51.528;5.076;2023-08-06T01:47:56;449.42;;;427.70;;
60973;SDS011;46846;51.528;5.076;2023-08-06T01:50:21;471.10;;;448.08;;
60973;SDS011;46846;51.528;5.076;2023-08-06T01:52:47;449.05;;;427.27;;
60973;SDS011;46846;51.528;5.076;2023-08-06T01:55:12;457.77;;;435.65;;
60973;SDS011;46846;51.528;5.076;2023-08-06T01:57:38;447.45;;;425.55;;
60973;SDS011;46846;51.528;5.076;2023-08-06T02:00:03;456.25;;;434.23;;
60973;SDS011;46846;51.528;5.076;2023-08-06T02:02:29;450.15;;;428.33;;
60973;SDS011;46846;51.528;5.076;2023-08-06T02:04:54;438.65;;;417.25;;
60973;SDS011;46846;51.528;5.076;2023-08-06T02:07:20;479.67;;;456.58;;
60973;SDS011;46846;51.528;5.076;2023-08-06T02:09:45;436.88;;;415.67;;
60973;SDS011;46846;51.528;5.076;2023-08-06T02:12:11;450.75;;;428.95;;
60973;SDS011;46846;51.528;5.076;2023-08-06T02:14:36;468.60;;;445.88;;
60973;SDS011;46846;51.528;5.076;2023-08-06T02:17:02;459.50;;;437.20;;
60973;SDS011;46846;51.528;5.076;2023-08-06T02:19:28;449.13;;;427.20;;
60973;SDS011;46846;51.528;5.076;2023-08-06T02:21:54;442.60;;;421.15;;
60973;SDS011;46846;51.528;5.076;2023-08-06T02:24:19;455.65;;;433.63;;
60973;SDS011;46846;51.528;5.076;2023-08-06T02:26:44;469.20;;;446.60;;
60973;SDS011;46846;51.528;5.076;2023-08-06T02:29:10;464.27;;;441.85;;
60973;SDS011;46846;51.528;5.076;2023-08-06T02:31:35;454.20;;;432.15;;
60973;SDS011;46846;51.528;5.076;2023-08-06T02:34:01;453.02;;;431.20;;
60973;SDS011;46846;51.528;5.076;2023-08-06T02:36:26;447.75;;;426.13;;
60973;SDS011;46846;51.528;5.076;2023-08-06T02:38:54;460.15;;;437.67;;
60973;SDS011;46846;51.528;5.076;2023-08-06T02:41:20;467.10;;;444.52;;
60973;SDS011;46846;51.528;5.076;2023-08-06T02:43:45;462.05;;;439.70;;
60973;SDS011;46846;51.528;5.076;2023-08-06T02:46:10;464.40;;;442.00;;
60973;SDS011;46846;51.528;5.076;2023-08-06T02:48:36;452.23;;;430.02;;
60973;SDS011;46846;51.528;5.076;2023-08-06T02:51:01;470.75;;;447.92;;
60973;SDS011;46846;51.528;5.076;2023-08-06T02:53:26;452.27;;;430.17;;
60973;SDS011;46846;51.528;5.076;2023-08-06T02:55:52;461.85;;;439.63;;
60973;SDS011;46846;51.528;5.076;2023-08-06T02:58:18;461.25;;;439.05;;
60973;SDS011;46846;51.528;5.076;2023-08-06T03:00:47;457.25;;;434.73;;
60973;SDS011;46846;51.528;5.076;2023-08-06T03:03:24;449.50;;;427.70;;
60973;SDS011;46846;51.528;5.076;2023-08-06T03:05:52;462.08;;;439.83;;
60973;SDS011;46846;51.528;5.076;2023-08-06T03:08:18;459.02;;;436.92;;
60973;SDS011;46846;51.528;5.076;2023-08-06T03:10:47;432.52;;;411.40;;
60973;SDS011;46846;51.528;5.076;2023-08-06T03:13:13;462.38;;;440.08;;
60973;SDS011;46846;51.528;5.076;2023-08-06T03:15:38;462.42;;;440.15;;
60973;SDS011;46846;51.528;5.076;2023-08-06T03:18:04;430.05;;;409.00;;
60973;SDS011;46846;51.528;5.076;2023-08-06T03:20:31;446.63;;;425.02;;
60973;SDS011;46846;51.528;5.076;2023-08-06T03:22:57;466.95;;;444.40;;
60973;SDS011;46846;51.528;5.076;2023-08-06T03:25:22;462.88;;;440.17;;
60973;SDS011;46846;51.528;5.076;2023-08-06T03:27:48;437.40;;;415.83;;
60973;SDS011;46846;51.528;5.076;2023-08-06T03:30:13;449.10;;;427.35;;
60973;SDS011;46846;51.528;5.076;2023-08-06T03:32:38;468.40;;;445.85;;
60973;SDS011;46846;51.528;5.076;2023-08-06T03:35:04;469.15;;;446.60;;
60973;SDS011;46846;51.528;5.076;2023-08-06T03:37:30;442.48;;;420.92;;
60973;SDS011;46846;51.528;5.076;2023-08-06T03:39:55;462.45;;;440.17;;
60973;SDS011;46846;51.528;5.076;2023-08-06T03:42:20;471.90;;;449.20;;
60973;SDS011;46846;51.528;5.076;2023-08-06T03:44:46;460.20;;;438.00;;
60973;SDS011;46846;51.528;5.076;2023-08-06T03:47:12;457.50;;;435.45;;
60973;SDS011;46846;51.528;5.076;2023-08-06T03:49:38;455.08;;;433.02;;
60973;SDS011;46846;51.528;5.076;2023-08-06T03:52:04;455.35;;;433.38;;
60973;SDS011;46846;51.528;5.076;2023-08-06T03:54:30;444.67;;;423.15;;
60973;SDS011;46846;51.528;5.076;2023-08-06T03:56:55;461.77;;;439.27;;
60973;SDS011;46846;51.528;5.076;2023-08-06T03:59:20;456.13;;;434.15;;
60973;SDS011;46846;51.528;5.076;2023-08-06T04:01:46;449.35;;;427.63;;
60973;SDS011;46846;51.528;5.076;2023-08-06T04:04:11;459.75;;;437.35;;
60973;SDS011;46846;51.528;5.076;2023-08-06T04:06:37;455.40;;;433.40;;
60973;SDS011;46846;51.528;5.076;2023-08-06T04:09:02;460.40;;;437.40;;
60973;SDS011;46846;51.528;5.076;2023-08-06T04:11:28;438.73;;;417.30;;
60973;SDS011;46846;51.528;5.076;2023-08-06T04:13:53;444.45;;;422.88;;
60973;SDS011;46846;51.528;5.076;2023-08-06T04:16:20;443.60;;;421.73;;
60973;SDS011;46846;51.528;5.076;2023-08-06T04:18:46;437.17;;;415.77;;
60973;SDS011;46846;51.528;5.076;2023-08-06T04:21:11;466.55;;;443.98;;
60973;SDS011;46846;51.528;5.076;2023-08-06T04:23:37;462.92;;;440.52;;
60973;SDS011;46846;51.528;5.076;2023-08-06T04:26:02;449.80;;;428.05;;
60973;SDS011;46846;51.528;5.076;2023-08-06T04:28:28;459.92;;;437.42;;
60973;SDS011;46846;51.528;5.076;2023-08-06T04:30:53;445.70;;;424.05;;
60973;SDS011;46846;51.528;5.076;2023-08-06T04:33:19;458.77;;;436.67;;
60973;SDS011;46846;51.528;5.076;2023-08-06T04:35:45;440.70;;;419.30;;
60973;SDS011;46846;51.528;5.076;2023-08-06T04:38:10;471.50;;;448.75;;
60973;SDS011;46846;51.528;5.076;2023-08-06T04:40:36;464.75;;;442.33;;
60973;SDS011;46846;51.528;5.076;2023-08-06T04:43:01;437.50;;;415.80;;
60973;SDS011;46846;51.528;5.076;2023-08-06T04:45:27;444.70;;;423.05;;
60973;SDS011;46846;51.528;5.076;2023-08-06T04:47:52;456.77;;;434.73;;
60973;SDS011;46846;51.528;5.076;2023-08-06T04:50:19;450.90;;;429.13;;
60973;SDS011;46846;51.528;5.076;2023-08-06T04:52:45;459.65;;;437.40;;
60973;SDS011;46846;51.528;5.076;2023-08-06T04:55:10;436.48;;;415.17;;
60973;SDS011;46846;51.528;5.076;2023-08-06T04:57:36;464.80;;;442.05;;
60973;SDS011;46846;51.528;5.076;2023-08-06T05:00:01;465.02;;;442.48;;
60973;SDS011;46846;51.528;5.076;2023-08-06T05:02:26;447.05;;;425.50;;
60973;SDS011;46846;51.528;5.076;2023-08-06T05:04:52;455.13;;;433.00;;
60973;SDS011;46846;51.528;5.076;2023-08-06T05:07:17;442.58;;;420.83;;
60973;SDS011;46846;51.528;5.076;2023-08-06T05:09:43;441.70;;;420.30;;
60973;SDS011;46846;51.528;5.076;2023-08-06T05:12:08;437.13;;;415.88;;
60973;SDS011;46846;51.528;5.076;2023-08-06T05:14:34;459.40;;;437.23;;
60973;SDS011;46846;51.528;5.076;2023-08-06T05:16:59;451.08;;;429.33;;
60973;SDS011;46846;51.528;5.076;2023-08-06T05:19:27;454.98;;;432.90;;
60973;SDS011;46846;51.528;5.076;2023-08-06T05:21:52;460.17;;;437.98;;
60973;SDS011;46846;51.528;5.076;2023-08-06T05:24:18;458.00;;;435.83;;
60973;SDS011;46846;51.528;5.076;2023-08-06T05:26:43;438.20;;;417.02;;
60973;SDS011;46846;51.528;5.076;2023-08-06T05:29:11;445.63;;;424.02;;
60973;SDS011;46846;51.528;5.076;2023-08-06T05:31:37;453.25;;;431.27;;
60973;SDS011;46846;51.528;5.076;2023-08-06T05:34:02;437.20;;;416.00;;
60973;SDS011;46846;51.528;5.076;2023-08-06T05:36:28;420.90;;;400.40;;
60973;SDS011;46846;51.528;5.076;2023-08-06T05:38:53;453.95;;;431.90;;
60973;SDS011;46846;51.528;5.076;2023-08-06T05:41:18;455.67;;;433.58;;
60973;SDS011;46846;51.528;5.076;2023-08-06T05:43:44;458.92;;;436.83;;
60973;SDS011;46846;51.528;5.076;2023-08-06T05:46:10;439.42;;;418.15;;
60973;SDS011;46846;51.528;5.076;2023-08-06T05:48:35;462.45;;;440.15;;
60973;SDS011;46846;51.528;5.076;2023-08-06T05:51:01;446.98;;;425.35;;
60973;SDS011;46846;51.528;5.076;2023-08-06T05:53:26;428.85;;;408.05;;
60973;SDS011;46846;51.528;5.076;2023-08-06T05:55:52;430.70;;;409.67;;
60973;SDS011;46846;51.528;5.076;2023-08-06T05:58:17;438.17;;;417.00;;
60973;SDS011;46846;51.528;5.076;2023-08-06T06:00:44;438.48;;;417.30;;
60973;SDS011;46846;51.528;5.076;2023-08-06T06:03:10;440.67;;;419.35;;
60973;SDS011;46846;51.528;5.076;2023-08-06T06:05:37;440.25;;;418.98;;
60973;SDS011;46846;51.528;5.076;2023-08-06T06:08:03;439.27;;;417.40;;
60973;SDS011;46846;51.528;5.076;2023-08-06T06:10:29;426.42;;;405.77;;
60973;SDS011;46846;51.528;5.076;2023-08-06T06:12:54;434.27;;;412.10;;
60973;SDS011;46846;51.528;5.076;2023-08-06T06:15:20;428.58;;;407.67;;
60973;SDS011;46846;51.528;5.076;2023-08-06T06:17:45;432.13;;;411.13;;
60973;SDS011;46846;51.528;5.076;2023-08-06T06:20:10;419.83;;;399.38;;
60973;SDS011;46846;51.528;5.076;2023-08-06T06:22:36;435.15;;;413.75;;
60973;SDS011;46846;51.528;5.076;2023-08-06T06:25:01;442.33;;;420.73;;
60973;SDS011;46846;51.528;5.076;2023-08-06T06:27:27;450.83;;;428.88;;
60973;SDS011;46846;51.528;5.076;2023-08-06T06:29:52;447.63;;;425.95;;
60973;SDS011;46846;51.528;5.076;2023-08-06T06:32:19;439.17;;;417.92;;
60973;SDS011;46846;51.528;5.076;2023-08-06T06:34:45;422.60;;;401.88;;
60973;SDS011;46846;51.528;5.076;2023-08-06T06:37:10;418.67;;;398.20;;
60973;SDS011;46846;51.528;5.076;2023-08-06T06:39:35;445.38;;;423.67;;
60973;SDS011;46846;51.528;5.076;2023-08-06T06:42:01;439.48;;;417.35;;
60973;SDS011;46846;51.528;5.076;2023-08-06T06:44:26;426.17;;;405.45;;
60973;SDS011;46846;51.528;5.076;2023-08-06T06:46:52;430.13;;;409.23;;
60973;SDS011;46846;51.528;5.076;2023-08-06T06:49:17;421.60;;;400.80;;
60973;SDS011;46846;51.528;5.076;2023-08-06T06:51:42;436.23;;;415.00;;
60973;SDS011;46846;51.528;5.076;2023-08-06T06:54:08;432.08;;;411.02;;
60973;SDS011;46846;51.528;5.076;2023-08-06T06:56:33;434.17;;;412.30;;
60973;SDS011;46846;51.528;5.076;2023-08-06T06:58:59;422.40;;;401.63;;
60973;SDS011;46846;51.528;5.076;2023-08-06T07:01:24;436.90;;;415.50;;
60973;SDS011;46846;51.528;5.076;2023-08-06T07:03:49;430.60;;;409.45;;
60973;SDS011;46846;51.528;5.076;2023-08-06T07:06:15;432.48;;;411.02;;
60973;SDS011;46846;51.528;5.076;2023-08-06T07:08:41;448.95;;;427.23;;
60973;SDS011;46846;51.528;5.076;2023-08-06T07:11:06;414.50;;;394.13;;
60973;SDS011;46846;51.528;5.076;2023-08-06T07:13:32;457.88;;;435.52;;
60973;SDS011;46846;51.528;5.076;2023-08-06T07:15:58;434.08;;;412.73;;
60973;SDS011;46846;51.528;5.076;2023-08-06T07:18:24;433.55;;;412.25;;
60973;SDS011;46846;51.528;5.076;2023-08-06T07:20:50;445.52;;;423.73;;
60973;SDS011;46846;51.528;5.076;2023-08-06T07:23:16;439.17;;;417.77;;
60973;SDS011;46846;51.528;5.076;2023-08-06T07:25:41;433.05;;;411.85;;
60973;SDS011;46846;51.528;5.076;2023-08-06T07:28:07;433.30;;;412.15;;
60973;SDS011;46846;51.528;5.076;2023-08-06T07:30:33;432.42;;;411.45;;
60973;SDS011;46846;51.528;5.076;2023-08-06T07:32:58;425.20;;;404.52;;
60973;SDS011;46846;51.528;5.076;2023-08-06T07:35:23;419.65;;;399.08;;
60973;SDS011;46846;51.528;5.076;2023-08-06T07:37:49;438.40;;;417.15;;
60973;SDS011;46846;51.528;5.076;2023-08-06T07:40:14;429.30;;;408.42;;
60973;SDS011;46846;51.528;5.076;2023-08-06T07:42:40;441.58;;;419.98;;
60973;SDS011;46846;51.528;5.076;2023-08-06T07:45:06;431.17;;;410.27;;
60973;SDS011;46846;51.528;5.076;2023-08-06T07:47:32;438.17;;;416.88;;
60973;SDS011;46846;51.528;5.076;2023-08-06T07:49:57;436.00;;;414.83;;
60973;SDS011;46846;51.528;5.076;2023-08-06T07:52:23;434.77;;;413.52;;
60973;SDS011;46846;51.528;5.076;2023-08-06T07:54:48;422.83;;;401.80;;
60973;SDS011;46846;51.528;5.076;2023-08-06T07:57:14;424.00;;;403.23;;
60973;SDS011;46846;51.528;5.076;2023-08-06T07:59:40;422.85;;;401.88;;
60973;SDS011;46846;51.528;5.076;2023-08-06T08:02:05;428.42;;;407.55;;
60973;SDS011;46846;51.528;5.076;2023-08-06T08:04:31;428.58;;;407.77;;
60973;SDS011;46846;51.528;5.076;2023-08-06T08:06:56;431.80;;;410.83;;
60973;SDS011;46846;51.528;5.076;2023-08-06T08:09:22;429.33;;;408.33;;
60973;SDS011;46846;51.528;5.076;2023-08-06T08:11:47;441.00;;;419.55;;
60973;SDS011;46846;51.528;5.076;2023-08-06T08:14:13;442.38;;;420.77;;
60973;SDS011;46846;51.528;5.076;2023-08-06T08:16:38;423.73;;;402.92;;
60973;SDS011;46846;51.528;5.076;2023-08-06T08:19:04;423.70;;;402.73;;
60973;SDS011;46846;51.528;5.076;2023-08-06T08:21:29;430.75;;;409.80;;
60973;SDS011;46846;51.528;5.076;2023-08-06T08:23:55;436.05;;;414.77;;
60973;SDS011;46846;51.528;5.076;2023-08-06T08:26:20;433.50;;;412.23;;
60973;SDS011;46846;51.528;5.076;2023-08-06T08:28:46;430.38;;;409.40;;
60973;SDS011;46846;51.528;5.076;2023-08-06T08:31:11;438.27;;;416.35;;
60973;SDS011;46846;51.528;5.076;2023-08-06T08:33:37;430.98;;;409.95;;
60973;SDS011;46846;51.528;5.076;2023-08-06T08:36:03;426.48;;;405.63;;
60973;SDS011;46846;51.528;5.076;2023-08-06T08:38:29;433.48;;;412.25;;
60973;SDS011;46846;51.528;5.076;2023-08-06T08:40:54;426.65;;;405.42;;
60973;SDS011;46846;51.528;5.076;2023-08-06T08:43:20;448.05;;;426.05;;
60973;SDS011;46846;51.528;5.076;2023-08-06T08:45:49;442.23;;;420.73;;
60973;SDS011;46846;51.528;5.076;2023-08-06T08:48:15;430.88;;;409.80;;
60973;SDS011;46846;51.528;5.076;2023-08-06T08:50:44;419.00;;;398.38;;
60973;SDS011;46846;51.528;5.076;2023-08-06T08:53:11;417.38;;;397.00;;
60973;SDS011;46846;51.528;5.076;2023-08-06T08:55:39;443.77;;;422.13;;
60973;SDS011;46846;51.528;5.076;2023-08-06T08:58:05;426.58;;;405.60;;
60973;SDS011;46846;51.528;5.076;2023-08-06T09:00:31;423.30;;;402.55;;
60973;SDS011;46846;51.528;5.076;2023-08-06T09:02:57;433.52;;;412.45;;
60973;SDS011;46846;51.528;5.076;2023-08-06T09:05:24;426.38;;;405.33;;
60973;SDS011;46846;51.528;5.076;2023-08-06T09:07:53;425.02;;;404.25;;
60973;SDS011;46846;51.528;5.076;2023-08-06T09:10:20;435.45;;;414.27;;
60973;SDS011;46846;51.528;5.076;2023-08-06T09:12:48;435.77;;;414.48;;
60973;SDS011;46846;51.528;5.076;2023-08-06T09:15:15;424.48;;;403.33;;
60973;SDS011;46846;51.528;5.076;2023-08-06T09:17:41;437.85;;;416.50;;
60973;SDS011;46846;51.528;5.076;2023-08-06T09:20:12;415.25;;;394.73;;
60973;SDS011;46846;51.528;5.076;2023-08-06T09:22:39;434.13;;;412.67;;
60973;SDS011;46846;51.528;5.076;2023-08-06T09:25:06;429.70;;;408.67;;
60973;SDS011;46846;51.528;5.076;2023-08-06T09:27:38;453.45;;;431.20;;
60973;SDS011;46846;51.528;5.076;2023-08-06T09:30:04;417.73;;;397.17;;
60973;SDS011;46846;51.528;5.076;2023-08-06T09:32:44;418.17;;;397.35;;
60973;SDS011;46846;51.528;5.076;2023-08-06T09:35:16;423.45;;;402.58;;
60973;SDS011;46846;51.528;5.076;2023-08-06T09:37:42;435.08;;;413.95;;
60973;SDS011;46846;51.528;5.076;2023-08-06T09:40:28;428.42;;;407.40;;
60973;SDS011;46846;51.528;5.076;2023-08-06T09:42:55;420.40;;;399.63;;
60973;SDS011;46846;51.528;5.076;2023-08-06T09:45:21;402.33;;;382.15;;
60973;SDS011;46846;51.528;5.076;2023-08-06T09:47:49;433.58;;;412.35;;
60973;SDS011;46846;51.528;5.076;2023-08-06T09:50:18;418.27;;;397.90;;
60973;SDS011;46846;51.528;5.076;2023-08-06T09:52:44;425.60;;;404.38;;
60973;SDS011;46846;51.528;5.076;2023-08-06T09:55:13;417.85;;;397.08;;
60973;SDS011;46846;51.528;5.076;2023-08-06T09:57:42;422.25;;;401.48;;
60973;SDS011;46846;51.528;5.076;2023-08-06T10:00:08;439.30;;;416.77;;
60973;SDS011;46846;51.528;5.076;2023-08-06T10:02:35;428.23;;;407.13;;
60973;SDS011;46846;51.528;5.076;2023-08-06T10:05:03;428.15;;;406.95;;
60973;SDS011;46846;51.528;5.076;2023-08-06T10:07:29;409.95;;;389.65;;
60973;SDS011;46846;51.528;5.076;2023-08-06T10:09:55;411.35;;;390.88;;
60973;SDS011;46846;51.528;5.076;2023-08-06T10:12:21;409.60;;;389.25;;
60973;SDS011;46846;51.528;5.076;2023-08-06T10:14:49;415.67;;;395.30;;
60973;SDS011;46846;51.528;5.076;2023-08-06T10:17:15;414.80;;;394.42;;
60973;SDS011;46846;51.528;5.076;2023-08-06T10:19:42;425.35;;;404.35;;
60973;SDS011;46846;51.528;5.076;2023-08-06T10:22:08;428.52;;;407.50;;
60973;SDS011;46846;51.528;5.076;2023-08-06T10:24:54;422.95;;;402.00;;
60973;SDS011;46846;51.528;5.076;2023-08-06T10:27:30;409.98;;;389.33;;
60973;SDS011;46846;51.528;5.076;2023-08-06T10:32:57;417.85;;;397.23;;
60973;SDS011;46846;51.528;5.076;2023-08-06T10:35:46;427.77;;;406.30;;
60973;SDS011;46846;51.528;5.076;2023-08-06T10:38:19;424.20;;;403.15;;
60973;SDS011;46846;51.528;5.076;2023-08-06T10:43:25;425.05;;;404.20;;
60973;SDS011;46846;51.528;5.076;2023-08-06T10:45:58;440.02;;;418.38;;
60973;SDS011;46846;51.528;5.076;2023-08-06T10:48:34;424.30;;;403.50;;
60973;SDS011;46846;51.528;5.076;2023-08-06T10:51:07;440.20;;;418.73;;
60973;SDS011;46846;51.528;5.076;2023-08-06T10:53:34;434.17;;;412.55;;
60973;SDS011;46846;51.528;5.076;2023-08-06T10:56:00;434.10;;;412.83;;
60973;SDS011;46846;51.528;5.076;2023-08-06T10:58:49;436.85;;;415.10;;
60973;SDS011;46846;51.528;5.076;2023-08-06T11:01:16;417.70;;;397.08;;
60973;SDS011;46846;51.528;5.076;2023-08-06T11:03:43;400.92;;;380.95;;
60973;SDS011;46846;51.528;5.076;2023-08-06T11:06:09;432.92;;;411.80;;
60973;SDS011;46846;51.528;5.076;2023-08-06T11:08:40;433.50;;;412.33;;
60973;SDS011;46846;51.528;5.076;2023-08-06T11:11:13;435.50;;;414.33;;
60973;SDS011;46846;51.528;5.076;2023-08-06T11:13:43;416.50;;;396.08;;
60973;SDS011;46846;51.528;5.076;2023-08-06T11:16:13;433.70;;;412.55;;
60973;SDS011;46846;51.528;5.076;2023-08-06T11:18:39;419.38;;;398.88;;
60973;SDS011;46846;51.528;5.076;2023-08-06T11:21:07;411.73;;;391.63;;
60973;SDS011;46846;51.528;5.076;2023-08-06T11:23:32;388.50;;;369.35;;
60973;SDS011;46846;51.528;5.076;2023-08-06T11:25:59;418.17;;;397.77;;
60973;SDS011;46846;51.528;5.076;2023-08-06T11:28:25;405.48;;;385.67;;
60973;SDS011;46846;51.528;5.076;2023-08-06T11:30:51;408.05;;;388.10;;
60973;SDS011;46846;51.528;5.076;2023-08-06T11:33:34;408.48;;;388.00;;
60973;SDS011;46846;51.528;5.076;2023-08-06T11:36:00;406.38;;;386.38;;
60973;SDS011;46846;51.528;5.076;2023-08-06T11:38:29;416.30;;;395.98;;
60973;SDS011;46846;51.528;5.076;2023-08-06T11:40:54;407.98;;;387.85;;
60973;SDS011;46846;51.528;5.076;2023-08-06T11:43:20;414.95;;;394.75;;
60973;SDS011;46846;51.528;5.076;2023-08-06T11:45:47;422.25;;;401.65;;
60973;SDS011;46846;51.528;5.076;2023-08-06T11:48:17;398.85;;;379.17;;
60973;SDS011;46846;51.528;5.076;2023-08-06T11:50:43;413.58;;;393.25;;
60973;SDS011;46846;51.528;5.076;2023-08-06T11:53:11;392.95;;;373.70;;
60973;SDS011;46846;51.528;5.076;2023-08-06T11:55:38;415.45;;;395.10;;
60973;SDS011;46846;51.528;5.076;2023-08-06T11:58:04;403.85;;;383.85;;
60973;SDS011;46846;51.528;5.076;2023-08-06T12:00:32;399.67;;;379.95;;
60973;SDS011;46846;51.528;5.076;2023-08-06T12:02:58;385.42;;;366.45;;
60973;SDS011;46846;51.528;5.076;2023-08-06T12:05:23;401.55;;;381.55;;
60973;SDS011;46846;51.528;5.076;2023-08-06T12:07:57;407.42;;;387.42;;
60973;SDS011;46846;51.528;5.076;2023-08-06T12:10:24;415.38;;;395.10;;
60973;SDS011;46846;51.528;5.076;2023-08-06T12:12:50;398.73;;;379.17;;
60973;SDS011;46846;51.528;5.076;2023-08-06T12:15:16;408.27;;;388.33;;
60973;SDS011;46846;51.528;5.076;2023-08-06T12:17:42;419.80;;;398.75;;
60973;SDS011;46846;51.528;5.076;2023-08-06T12:20:07;408.70;;;388.50;;
60973;SDS011;46846;51.528;5.076;2023-08-06T12:22:34;393.13;;;373.70;;
60973;SDS011;46846;51.528;5.076;2023-08-06T12:25:01;405.85;;;385.80;;
60973;SDS011;46846;51.528;5.076;2023-08-06T12:27:33;400.17;;;380.63;;
60973;SDS011;46846;51.528;5.076;2023-08-06T12:30:01;407.88;;;387.98;;
60973;SDS011;46846;51.528;5.076;2023-08-06T12:32:28;403.65;;;383.48;;
60973;SDS011;46846;51.528;5.076;2023-08-06T12:34:54;418.92;;;398.08;;
60973;SDS011;46846;51.528;5.076;2023-08-06T12:37:19;405.30;;;385.15;;
60973;SDS011;46846;51.528;5.076;2023-08-06T12:39:45;392.77;;;372.98;;
60973;SDS011;46846;51.528;5.076;2023-08-06T12:42:10;405.92;;;385.90;;
60973;SDS011;46846;51.528;5.076;2023-08-06T12:44:36;397.40;;;377.58;;
60973;SDS011;46846;51.528;5.076;2023-08-06T12:47:01;394.35;;;374.90;;
60973;SDS011;46846;51.528;5.076;2023-08-06T12:49:27;384.83;;;365.88;;
60973;SDS011;46846;51.528;5.076;2023-08-06T12:51:53;403.55;;;383.50;;
60973;SDS011;46846;51.528;5.076;2023-08-06T12:54:19;403.27;;;383.15;;
60973;SDS011;46846;51.528;5.076;2023-08-06T12:56:46;413.35;;;392.75;;
60973;SDS011;46846;51.528;5.076;2023-08-06T12:59:13;411.00;;;389.77;;
60973;SDS011;46846;51.528;5.076;2023-08-06T13:01:39;406.02;;;386.05;;
60973;SDS011;46846;51.528;5.076;2023-08-06T13:04:05;400.08;;;380.25;;
60973;SDS011;46846;51.528;5.076;2023-08-06T13:06:30;416.23;;;395.92;;
60973;SDS011;46846;51.528;5.076;2023-08-06T13:09:00;397.27;;;377.25;;
60973;SDS011;46846;51.528;5.076;2023-08-06T13:11:26;421.10;;;400.55;;
60973;SDS011;46846;51.528;5.076;2023-08-06T13:13:52;412.35;;;392.00;;
60973;SDS011;46846;51.528;5.076;2023-08-06T13:16:17;397.35;;;377.83;;
60973;SDS011;46846;51.528;5.076;2023-08-06T13:18:42;400.15;;;380.38;;
60973;SDS011;46846;51.528;5.076;2023-08-06T13:21:08;415.08;;;394.20;;
60973;SDS011;46846;51.528;5.076;2023-08-06T13:23:34;403.30;;;383.10;;
60973;SDS011;46846;51.528;5.076;2023-08-06T13:25:59;412.48;;;391.55;;
60973;SDS011;46846;51.528;5.076;2023-08-06T13:28:25;403.63;;;383.52;;
60973;SDS011;46846;51.528;5.076;2023-08-06T13:30:51;425.08;;;404.23;;
60973;SDS011;46846;51.528;5.076;2023-08-06T13:33:16;411.20;;;390.98;;
60973;SDS011;46846;51.528;5.076;2023-08-06T13:35:41;419.92;;;399.27;;
60973;SDS011;46846;51.528;5.076;2023-08-06T13:38:07;400.80;;;380.90;;
60973;SDS011;46846;51.528;5.076;2023-08-06T13:40:33;412.85;;;392.25;;
60973;SDS011;46846;51.528;5.076;2023-08-06T13:42:59;413.50;;;392.88;;
60973;SDS011;46846;51.528;5.076;2023-08-06T13:45:25;430.83;;;409.80;;
60973;SDS011;46846;51.528;5.076;2023-08-06T13:47:50;412.48;;;391.98;;
60973;SDS011;46846;51.528;5.076;2023-08-06T13:50:16;421.83;;;401.15;;
60973;SDS011;46846;51.528;5.076;2023-08-06T13:52:41;412.95;;;392.60;;
60973;SDS011;46846;51.528;5.076;2023-08-06T13:55:07;425.65;;;404.75;;
60973;SDS011;46846;51.528;5.076;2023-08-06T13:57:36;420.73;;;400.05;;
60973;SDS011;46846;51.528;5.076;2023-08-06T14:00:02;413.02;;;392.73;;
60973;SDS011;46846;51.528;5.076;2023-08-06T14:02:28;406.83;;;386.90;;
60973;SDS011;46846;51.528;5.076;2023-08-06T14:04:54;396.27;;;376.70;;